Time;durP1;ratioP1;P1;durP2;ratioP2;P2;SDS_P1;SDS_P2;PMS_P1;PMS_P2;Temp;Humidity;BMP_temperature;BMP_pressure;BME280_temperature;BME280_humidity;BME280_pressure;Samples;Min_cycle;Max_cycle;Signal;HPM_P1;HPM_P2
2022/06/03 00:01:08;;;;;;;;;5.20;5.20;;;;;21.40;34.38;100877.78;4976010;28;46664;-51
2022/06/03 00:04:11;;;;;;;;;7.00;5.20;;;;;21.29;34.47;100882.53;4976392;28;45291;-51
2022/06/03 00:06:49;;;;;;;;;5.60;5.20;;;;;21.17;34.74;100868.88;4976256;28;45250;-49
2022/06/03 00:09:39;;;;;;;;;4.00;2.00;;;;;21.29;34.50;100864.97;4975409;28;45513;-49
2022/06/03 00:13:03;;;;;;;;;3.60;3.20;;;;;21.19;34.82;100855.47;4975584;28;45518;-50
2022/06/03 00:15:42;;;;;;;;;7.00;5.00;;;;;21.08;34.93;100853.84;4955346;28;45585;-51
2022/06/03 00:18:13;;;;;;;;;4.00;4.00;;;;;21.08;35.44;100859.41;4965244;28;45491;-47
2022/06/03 00:20:38;;;;;;;;;4.20;3.80;;;;;20.92;35.05;100827.91;4970995;28;45856;-52
2022/06/03 00:23:35;;;;;;;;;4.25;4.25;;;;;21.11;34.99;100859.69;4977381;28;45461;-49
2022/06/03 00:26:20;;;;;;;;;6.00;6.00;;;;;20.90;35.22;100847.69;4979105;28;45374;-46
2022/06/03 00:29:04;;;;;;;;;3.00;3.00;;;;;20.99;35.18;100856.34;4977432;28;45374;-49
2022/06/03 00:32:06;;;;;;;;;3.20;3.20;;;;;20.76;35.05;100824.25;4979573;28;45594;-48
2022/06/03 00:34:36;;;;;;;;;4.00;4.00;;;;;20.85;34.78;100842.13;4979342;28;45942;-48
2022/06/03 00:37:18;;;;;;;;;4.80;4.80;;;;;20.96;35.03;100849.38;4977934;28;45368;-53
2022/06/03 00:40:22;;;;;;;;;5.40;4.00;;;;;21.07;35.14;100854.97;4978861;28;45432;-50
2022/06/03 00:43:06;;;;;;;;;3.00;3.00;;;;;20.88;34.83;100826.78;4979224;28;45316;-51
2022/06/03 00:45:56;;;;;;;;;4.00;4.00;;;;;20.95;35.26;100853.28;4977594;28;45453;-49
2022/06/03 00:49:00;;;;;;;;;5.40;3.80;;;;;20.58;35.28;100798.59;4978713;28;45361;-49
2022/06/03 00:51:41;;;;;;;;;6.00;4.60;;;;;20.69;35.53;100821.72;4973919;28;45438;-49
2022/06/03 00:54:16;;;;;;;;;5.00;5.00;;;;;20.82;35.62;100846.25;4978978;28;45315;-49
2022/06/03 00:56:48;;;;;;;;;5.80;5.80;;;;;20.84;35.62;100857.19;4978676;28;45463;-51
2022/06/03 00:59:31;;;;;;;;;4.80;4.80;;;;;20.92;35.42;100855.78;4978614;28;45347;-52
2022/06/03 01:02:18;;;;;;;;;7.40;7.40;;;;;20.89;35.58;100861.91;4979044;28;45382;-47
2022/06/03 01:05:02;;;;;;;;;7.20;6.40;;;;;20.87;35.69;100861.38;4978627;28;45548;-50
2022/06/03 01:07:48;;;;;;;;;4.40;4.40;;;;;20.91;35.56;100859.72;4976964;28;46573;-49
2022/06/03 01:10:24;;;;;;;;;6.40;5.80;;;;;20.95;35.40;100853.28;4978665;28;45272;-49
2022/06/03 01:12:57;;;;;;;;;5.00;5.00;;;;;21.01;35.39;100853.28;4961431;28;45352;-51
2022/06/03 01:15:35;;;;;;;;;4.20;3.40;;;;;21.03;35.47;100851.88;4977368;28;45321;-48
2022/06/03 01:18:13;;;;;;;;;5.80;4.00;;;;;21.03;35.55;100849.06;4978296;28;46947;-49
2022/06/03 01:20:53;;;;;;;;;6.20;3.20;;;;;21.01;35.59;100842.94;4997880;28;45350;-48
2022/06/03 01:23:41;;;;;;;;;4.80;4.80;;;;;20.88;35.57;100849.09;4998044;28;45326;-48
2022/06/03 01:26:18;;;;;;;;;5.00;4.00;;;;;20.90;35.87;100844.91;4997798;28;45390;-48
2022/06/03 01:29:02;;;;;;;;;3.00;3.00;;;;;20.80;35.87;100847.66;4997258;28;45443;-47
2022/06/03 01:31:55;;;;;;;;;4.00;3.00;;;;;20.80;36.10;100853.22;4997433;28;45425;-53
2022/06/03 01:34:45;;;;;;;;;5.40;5.40;;;;;20.77;36.04;100848.22;4998418;28;45291;-53
2022/06/03 01:37:25;;;;;;;;;3.80;3.80;;;;;20.70;36.22;100848.47;5023721;28;45555;-47
2022/06/03 01:40:12;;;;;;;;;3.60;3.60;;;;;20.56;36.15;100848.22;5029453;28;45376;-50
2022/06/03 01:43:03;;;;;;;;;3.80;3.80;;;;;20.48;36.16;100841.22;4967139;28;45628;-48
2022/06/03 01:46:05;;;;;;;;;3.40;3.40;;;;;20.38;36.41;100818.94;4973223;28;45528;-48
2022/06/03 01:48:34;;;;;;;;;3.60;3.20;;;;;20.49;36.34;100834.53;4978131;28;45389;-49
2022/06/03 01:51:37;;;;;;;;;3.60;3.00;;;;;20.47;36.29;100833.13;4977629;28;45451;-48
2022/06/03 01:54:17;;;;;;;;;3.40;3.40;;;;;20.35;36.63;100814.75;4954648;28;45558;-48
2022/06/03 01:57:09;;;;;;;;;4.60;3.60;;;;;20.23;36.43;100794.66;4977784;28;45413;-48
2022/06/03 01:59:49;;;;;;;;;3.20;3.20;;;;;20.37;36.37;100820.88;4976958;28;45328;-50
2022/06/03 02:02:46;;;;;;;;;2.60;2.60;;;;;20.36;36.42;100821.97;4977919;28;46709;-45
2022/06/03 02:05:26;;;;;;;;;3.20;3.20;;;;;20.30;36.64;100825.88;4977686;28;45449;-47
2022/06/03 02:08:22;;;;;;;;;5.20;4.80;;;;;20.12;37.04;100785.44;4976053;28;45407;-46
2022/06/03 02:10:59;;;;;;;;;5.40;3.40;;;;;20.02;36.73;100766.75;4977629;28;45498;-48
2022/06/03 02:13:43;;;;;;;;;4.80;4.00;;;;;20.24;36.76;100796.31;4977314;28;45454;-49
2022/06/03 02:16:14;;;;;;;;;5.80;4.20;;;;;20.30;36.95;100795.22;4977374;28;45240;-48
2022/06/03 02:19:12;;;;;;;;;3.80;3.20;;;;;20.26;36.94;100796.88;4981057;28;45379;-49
2022/06/03 02:21:58;;;;;;;;;4.60;3.60;;;;;20.30;37.01;100789.66;5024808;28;45516;-47
2022/06/03 02:24:39;;;;;;;;;4.80;4.80;;;;;20.23;37.56;100786.28;5011357;28;45917;-47
2022/06/03 02:27:52;;;;;;;;;4.80;4.00;;;;;20.14;37.40;100777.63;4996637;28;45337;-48
2022/06/03 02:30:42;;;;;;;;;4.00;4.00;;;;;19.84;37.39;100738.28;4926049;28;45564;-50
2022/06/03 02:33:58;;;;;;;;;5.00;4.80;;;;;20.09;37.65;100777.63;5028599;28;45469;-48
2022/06/03 02:36:57;;;;;;;;;4.00;4.00;;;;;19.88;37.49;100738.56;4976943;28;46772;-49
2022/06/03 02:39:28;;;;;;;;;3.60;3.60;;;;;20.09;36.81;100761.75;4994301;28;45409;-48
2022/06/03 02:42:22;;;;;;;;;5.00;5.00;;;;;20.22;37.30;100779.06;4990120;28;45438;-49
2022/06/03 02:45:05;;;;;;;;;4.00;4.00;;;;;20.13;37.61;100773.19;4997504;28;45466;-53
2022/06/03 02:48:07;;;;;;;;;5.00;3.80;;;;;20.11;37.62;100773.44;5027856;28;45710;-48
2022/06/03 02:51:09;;;;;;;;;5.80;5.80;;;;;20.15;37.81;100770.94;4997248;28;45299;-50
2022/06/03 02:54:08;;;;;;;;;3.60;3.60;;;;;20.13;37.42;100768.44;4997306;28;45838;-48
2022/06/03 02:57:21;;;;;;;;;3.40;3.40;;;;;20.15;37.64;100760.66;5028980;28;45441;-47
2022/06/03 03:00:03;;;;;;;;;4.00;4.00;;;;;20.00;37.68;100753.09;4996061;28;46430;-47
2022/06/03 03:02:40;;;;;;;;;3.20;3.20;;;;;19.98;37.90;100763.69;5027922;28;45317;-46
2022/06/03 03:05:27;;;;;;;;;4.00;4.00;;;;;19.97;37.96;100758.38;5011252;28;45466;-50
2022/06/03 03:08:20;;;;;;;;;4.60;4.60;;;;;19.96;37.92;100753.94;4997206;28;45809;-49
2022/06/03 03:11:37;;;;;;;;;3.80;3.80;;;;;19.98;37.60;100754.47;4996801;28;46922;-47
2022/06/03 03:14:24;;;;;;;;;5.40;5.40;;;;;19.98;37.94;100763.69;4995630;28;45288;-47
2022/06/03 03:17:05;;;;;;;;;4.20;3.80;;;;;19.91;38.06;100760.31;4995573;28;45372;-48
2022/06/03 03:19:50;;;;;;;;;4.00;4.00;;;;;19.99;37.66;100761.72;4986380;28;45348;-48
2022/06/03 03:22:34;;;;;;;;;4.80;4.80;;;;;20.04;37.80;100762.59;4975796;28;46883;-50
2022/06/03 03:25:22;;;;;;;;;4.80;4.80;;;;;20.05;37.72;100766.19;4977189;28;45287;-50
2022/06/03 03:28:06;;;;;;;;;4.00;4.00;;;;;20.04;38.06;100759.81;4975969;28;45328;-48
2022/06/03 03:31:12;;;;;;;;;4.60;4.20;;;;;20.09;37.78;100764.53;4976636;28;45209;-48
2022/06/03 03:33:56;;;;;;;;;4.00;4.00;;;;;20.12;37.63;100769.53;4973603;28;45824;-50
2022/06/03 03:36:27;;;;;;;;;6.80;5.20;;;;;20.12;37.60;100771.50;4954580;28;45694;-51
2022/06/03 03:38:53;;;;;;;;;5.00;5.00;;;;;20.12;37.97;100760.38;4996427;28;45444;-47
2022/06/03 03:41:39;;;;;;;;;3.50;3.50;;;;;20.03;37.65;100751.72;4995310;28;45390;-48
2022/06/03 03:44:19;;;;;;;;;3.00;3.00;;;;;20.01;38.05;100753.94;5009484;28;47205;-47
2022/06/03 03:47:17;;;;;;;;;4.80;4.80;;;;;20.01;38.11;100762.31;5024642;28;45370;-46
2022/06/03 03:50:09;;;;;;;;;4.60;4.60;;;;;19.94;38.27;100751.38;4995727;28;45321;-46
2022/06/03 03:52:56;;;;;;;;;4.20;4.20;;;;;19.84;38.49;100752.19;4996524;28;45405;-46
2022/06/03 03:55:46;;;;;;;;;4.80;4.60;;;;;19.78;38.72;100747.72;4995944;28;45732;-51
2022/06/03 03:58:17;;;;;;;;;6.40;5.40;;;;;19.55;38.44;100726.78;4996472;28;45346;-52
2022/06/03 04:00:51;;;;;;;;;4.00;4.00;;;;;19.63;38.57;100732.66;5028055;28;45436;-49
2022/06/03 04:03:51;;;;;;;;;4.60;4.60;;;;;19.71;38.79;100752.72;4996741;28;45382;-48
2022/06/03 04:06:46;;;;;;;;;4.00;3.00;;;;;19.76;39.04;100758.31;5024876;28;46521;-49
2022/06/03 04:09:40;;;;;;;;;5.60;5.60;;;;;19.82;38.70;100765.56;4957099;28;45446;-51
2022/06/03 04:12:26;;;;;;;;;5.60;5.60;;;;;19.90;38.56;100761.38;4957262;28;45359;-48
2022/06/03 04:15:07;;;;;;;;;3.20;3.20;;;;;19.77;38.57;100760.81;4956876;28;45311;-47
2022/06/03 04:17:40;;;;;;;;;5.00;4.60;;;;;19.55;38.72;100704.50;4956500;28;46326;-48
2022/06/03 04:20:08;;;;;;;;;7.00;4.80;;;;;19.82;38.65;100754.44;4977413;28;45263;-48
2022/06/03 04:23:06;;;;;;;;;4.20;4.20;;;;;19.91;38.45;100760.31;4996118;28;45380;-48
2022/06/03 04:26:04;;;;;;;;;6.60;3.80;;;;;19.96;38.66;100765.06;5028440;28;45503;-49
2022/06/03 04:28:59;;;;;;;;;4.40;4.40;;;;;19.77;38.89;100730.19;4994345;28;46764;-52
2022/06/03 04:31:43;;;;;;;;;4.80;4.80;;;;;19.85;38.76;100747.47;5022849;28;45450;-48
2022/06/03 04:34:17;;;;;;;;;5.20;5.20;;;;;19.83;38.90;100747.75;4994230;28;45194;-48
2022/06/03 04:37:27;;;;;;;;;3.40;3.40;;;;;19.94;38.76;100750.56;4995923;28;45315;-49
2022/06/03 04:40:28;;;;;;;;;5.40;5.40;;;;;20.00;38.23;100753.09;4994678;28;45561;-50
2022/06/03 04:43:24;;;;;;;;;5.00;4.40;;;;;19.96;38.71;100765.88;5007343;28;45424;-49
2022/06/03 04:46:08;;;;;;;;;4.40;4.40;;;;;19.90;39.07;100765.03;4994242;28;45348;-50
2022/06/03 04:49:01;;;;;;;;;4.40;4.40;;;;;19.80;38.96;100767.75;4996066;28;45338;-49
2022/06/03 04:51:33;;;;;;;;;6.20;5.20;;;;;19.83;39.34;100766.38;4995430;28;46489;-46
2022/06/03 04:54:23;;;;;;;;;5.40;4.40;;;;;19.53;39.19;100734.56;4995237;28;45449;-51
2022/06/03 04:57:25;;;;;;;;;3.00;3.00;;;;;19.81;39.40;100768.63;4995007;28;45319;-48
2022/06/03 05:00:32;;;;;;;;;7.60;5.00;;;;;19.75;38.89;100762.22;4995505;28;45373;-50
2022/06/03 05:03:09;;;;;;;;;4.60;3.80;;;;;19.76;39.82;100786.97;4996879;28;45620;-51
2022/06/03 05:05:49;;;;;;;;;5.80;5.80;;;;;19.80;39.54;100769.72;4998439;28;45292;-49
2022/06/03 05:08:31;;;;;;;;;7.40;6.60;;;;;19.74;39.41;100757.75;4998707;28;45389;-47
2022/06/03 05:11:18;;;;;;;;;5.20;5.20;;;;;19.90;39.41;100758.59;5030551;28;45371;-48
2022/06/03 05:13:51;;;;;;;;;5.00;5.00;;;;;19.90;39.63;100765.03;4998489;28;47006;-49
2022/06/03 05:16:42;;;;;;;;;9.80;6.00;;;;;19.87;39.61;100743.31;5030126;28;45429;-48
2022/06/03 05:19:41;;;;;;;;;6.80;5.80;;;;;19.81;39.64;100755.53;5026684;28;45430;-46
2022/06/03 05:22:13;;;;;;;;;5.00;5.00;;;;;19.76;39.76;100763.88;4978777;28;45323;-54
2022/06/03 05:25:16;;;;;;;;;7.40;6.20;;;;;19.77;40.04;100773.91;4977009;28;45545;-50
2022/06/03 05:28:05;;;;;;;;;8.00;6.80;;;;;19.75;39.78;100768.59;4978368;28;45405;-47
2022/06/03 05:30:43;;;;;;;;;7.20;6.40;;;;;19.85;39.97;100770.56;4978402;28;45311;-52
2022/06/03 05:33:23;;;;;;;;;8.00;8.00;;;;;19.96;39.68;100760.31;4978585;28;45630;-50
2022/06/03 05:36:10;;;;;;;;;6.40;5.00;;;;;19.83;40.03;100758.88;4978173;28;46091;-50
2022/06/03 05:39:12;;;;;;;;;7.00;7.00;;;;;19.78;40.10;100756.06;4978180;28;45755;-49
2022/06/03 05:44:49;;;;;;;;;5.80;5.80;;;;;19.91;40.27;100749.16;4978306;28;45323;-47
2022/06/03 05:47:43;;;;;;;;;6.40;6.40;;;;;19.97;40.20;100747.25;4978277;28;46816;-51
2022/06/03 05:50:20;;;;;;;;;6.80;6.00;;;;;19.97;40.33;100733.31;4968891;28;45556;-48
2022/06/03 05:53:13;;;;;;;;;6.60;6.60;;;;;20.07;40.09;100738.06;4972154;28;45356;-47
2022/06/03 05:56:15;;;;;;;;;6.20;6.20;;;;;20.18;40.14;100740.59;4954424;28;45526;-50
2022/06/03 05:58:59;;;;;;;;;12.20;8.00;;;;;20.25;40.14;100747.84;4958842;28;45443;-51
2022/06/03 06:01:44;;;;;;;;;5.80;5.80;;;;;20.14;39.76;100708.00;4958070;28;45383;-50
2022/06/03 06:04:25;;;;;;;;;7.80;5.20;;;;;20.27;39.90;100724.16;4957198;28;45372;-48
2022/06/03 06:07:26;;;;;;;;;6.00;6.00;;;;;20.30;39.99;100739.47;4957543;28;45391;-55
2022/06/03 06:10:04;;;;;;;;;6.80;6.80;;;;;20.32;40.77;100751.19;4957306;28;46710;-55
2022/06/03 06:12:35;;;;;;;;;7.40;5.80;;;;;20.37;40.71;100748.41;4957303;28;45471;-53
2022/06/03 06:15:10;;;;;;;;;8.00;5.40;;;;;20.35;40.49;100747.00;4958274;28;45252;-51
2022/06/03 06:17:51;;;;;;;;;7.20;5.60;;;;;20.37;40.65;100751.19;4957403;28;45203;-56
2022/06/03 06:20:34;;;;;;;;;7.60;7.60;;;;;20.34;40.70;100748.97;4974931;28;45595;-53
2022/06/03 06:23:28;;;;;;;;;6.20;6.00;;;;;20.29;40.90;100746.19;5010606;28;45477;-48
2022/06/03 06:26:05;;;;;;;;;8.80;8.80;;;;;20.28;40.87;100745.34;4995929;28;45517;-54
2022/06/03 06:28:55;;;;;;;;;7.60;7.60;;;;;20.42;40.97;100742.84;5028643;28;45864;-53
2022/06/03 06:31:39;;;;;;;;;8.60;8.40;;;;;20.44;40.62;100732.22;4995291;28;45847;-53
2022/06/03 06:34:34;;;;;;;;;9.40;8.00;;;;;20.48;40.90;100738.09;4995926;28;45275;-52
2022/06/03 06:37:18;;;;;;;;;7.40;6.40;;;;;20.47;41.07;100749.50;5003887;28;45383;-51
2022/06/03 06:40:22;;;;;;;;;11.80;10.00;;;;;20.54;40.83;100744.50;4997266;28;45214;-53
2022/06/03 06:42:51;;;;;;;;;8.40;8.40;;;;;20.57;40.59;100738.38;4996691;28;46703;-51
2022/06/03 06:45:20;;;;;;;;;7.00;6.80;;;;;20.56;40.75;100731.13;4997240;28;45298;-50
2022/06/03 06:47:55;;;;;;;;;8.00;6.80;;;;;20.56;41.09;100736.69;5028938;28;45259;-53
2022/06/03 06:50:34;;;;;;;;;9.20;8.20;;;;;20.35;40.85;100703.25;4996990;28;45464;-52
2022/06/03 06:53:07;;;;;;;;;10.20;10.20;;;;;20.70;40.70;100736.94;5000706;28;45593;-55
2022/06/03 06:55:46;;;;;;;;;7.60;7.60;;;;;20.68;40.80;100728.88;4975038;28;45368;-53
2022/06/03 06:58:31;;;;;;;;;9.00;8.40;;;;;20.76;40.90;100727.47;4975471;28;45324;-56
2022/06/03 07:00:57;;;;;;;;;6.20;4.80;;;;;20.79;40.74;100723.28;4977278;28;45381;-56
2022/06/03 07:03:50;;;;;;;;;9.60;8.80;;;;;20.79;40.58;100712.13;4975738;28;45866;-54
2022/06/03 07:06:24;;;;;;;;;5.40;5.40;;;;;20.89;40.78;100728.03;4975856;28;45646;-54
2022/06/03 07:08:55;;;;;;;;;9.20;7.80;;;;;20.94;40.68;100734.44;4959990;28;45466;-49
2022/06/03 07:11:30;;;;;;;;;7.20;7.20;;;;;21.02;40.54;100732.19;4960102;28;45419;-55
2022/06/03 07:13:59;;;;;;;;;9.60;8.80;;;;;20.88;40.77;100706.84;4959640;28;46385;-56
2022/06/03 07:19:49;;;;;;;;;7.40;7.20;;;;;21.25;40.54;100736.31;4979443;28;45478;-53
2022/06/03 07:22:19;;;;;;;;;9.00;7.40;;;;;21.28;40.87;100732.13;4996558;28;45338;-56
2022/06/03 07:24:57;;;;;;;;;8.80;7.60;;;;;21.24;40.75;100723.50;4995877;28;46756;-49
2022/06/03 07:27:42;;;;;;;;;7.00;7.00;;;;;21.26;41.06;100721.22;5028282;28;45432;-57
2022/06/03 07:30:16;;;;;;;;;11.60;11.60;;;;;21.30;40.71;100713.13;5009070;28;45378;-52
2022/06/03 07:32:48;;;;;;;;;10.80;9.80;;;;;21.32;40.81;100713.66;4994924;28;45533;-53
2022/06/03 07:35:27;;;;;;;;;6.00;6.00;;;;;21.23;40.66;100694.72;5026430;28;46745;-54
2022/06/03 07:38:01;;;;;;;;;10.40;10.40;;;;;21.38;40.79;100732.06;5010856;28;45295;-55
2022/06/03 07:40:39;;;;;;;;;9.00;6.80;;;;;21.37;40.91;100741.56;5010806;28;45363;-56
2022/06/03 07:43:05;;;;;;;;;11.40;8.00;;;;;21.38;40.89;100754.41;5028067;28;45448;-53
2022/06/03 07:45:33;;;;;;;;;11.50;7.75;;;;;21.26;41.16;100710.91;4994690;28;45758;-54
2022/06/03 07:47:59;;;;;;;;;8.60;8.60;;;;;21.33;41.31;100720.91;4996174;28;45357;-55
2022/06/03 07:50:24;;;;;;;;;6.75;6.75;;;;;21.49;41.69;100747.66;5027758;28;45310;-54
2022/06/03 07:52:54;;;;;;;;;11.75;11.00;;;;;21.35;41.37;100719.50;4985702;28;45463;-55
2022/06/03 07:55:26;;;;;;;;;8.40;7.40;;;;;21.47;41.79;100726.72;4958483;28;46892;-55
2022/06/03 07:57:56;;;;;;;;;11.20;10.20;;;;;21.58;42.10;100744.25;4975139;28;45382;-53
2022/06/03 08:00:22;;;;;;;;;12.20;11.40;;;;;21.50;42.27;100754.09;4974929;28;45347;-51
2022/06/03 08:03:12;;;;;;;;;7.60;7.60;;;;;21.38;42.22;100732.06;4959060;28;45395;-54
2022/06/03 08:05:37;;;;;;;;;10.40;8.80;;;;;21.61;42.17;100743.72;4959626;28;45535;-57
2022/06/03 08:11:00;;;;;;;;;10.40;8.40;;;;;21.82;41.80;100746.41;4976264;28;45264;-58
2022/06/03 08:13:48;;;;;;;;;10.00;10.00;;;;;21.84;42.00;100736.63;4976292;28;45324;-57
2022/06/03 08:16:26;;;;;;;;;8.40;8.00;;;;;21.89;42.13;100739.38;4958994;28;46507;-57
2022/06/03 08:18:51;;;;;;;;;8.40;7.80;;;;;21.93;42.31;100745.25;4958721;28;45438;-54
2022/06/03 08:21:21;;;;;;;;;7.75;7.50;;;;;22.00;42.33;100747.69;4974352;28;45455;-53
2022/06/03 08:23:47;;;;;;;;;7.80;6.40;;;;;21.86;42.16;100716.75;4994559;28;45391;-53
2022/06/03 08:26:17;;;;;;;;;9.00;8.00;;;;;22.12;41.73;100742.59;5010546;28;45736;-52
2022/06/03 08:28:48;;;;;;;;;7.80;7.80;;;;;21.96;42.06;100719.50;4994312;28;45290;-54
2022/06/03 08:31:14;;;;;;;;;11.00;9.20;;;;;22.16;42.13;100742.84;5026980;28;45433;-54
2022/06/03 08:33:46;;;;;;;;;9.00;8.25;;;;;22.16;42.21;100734.47;5027283;28;45420;-53
2022/06/03 08:36:15;;;;;;;;;11.20;8.00;;;;;22.36;42.20;100736.25;5028807;28;46308;-52
2022/06/03 08:38:55;;;;;;;;;9.20;9.20;;;;;22.43;41.67;100722.78;5030168;28;45380;-54
2022/06/03 08:41:42;;;;;;;;;11.00;9.40;;;;;22.51;41.72;100731.66;4997357;28;45381;-59
2022/06/03 08:44:12;;;;;;;;;9.00;9.00;;;;;22.57;41.90;100736.13;4998930;28;45472;-52
2022/06/03 08:47:00;;;;;;;;;9.60;8.40;;;;;22.56;42.08;100726.88;5029623;28;45971;-53
2022/06/03 08:49:28;;;;;;;;;10.60;10.20;;;;;22.57;41.85;100722.97;4997359;28;45352;-52
2022/06/03 08:52:01;;;;;;;;;11.00;10.00;;;;;22.46;41.55;100682.19;4998234;28;46055;-54
2022/06/03 08:54:48;;;;;;;;;9.00;9.00;;;;;22.68;41.30;100704.09;4970997;28;45676;-50
2022/06/03 08:57:39;;;;;;;;;9.80;9.80;;;;;22.79;41.30;100716.03;4954025;28;45594;-55
2022/06/03 09:00:16;;;;;;;;;9.80;9.80;;;;;22.82;41.53;100717.41;4974043;28;45419;-52
2022/06/03 09:02:53;;;;;;;;;10.80;10.20;;;;;22.82;41.84;100718.25;5010248;28;45397;-57
2022/06/03 09:05:27;;;;;;;;;15.00;13.80;;;;;22.88;41.26;100713.41;4995606;28;45433;-59
2022/06/03 09:08:04;;;;;;;;;9.80;9.20;;;;;22.83;41.28;100705.09;4959368;28;50648;-58
2022/06/03 09:10:41;;;;;;;;;13.60;11.20;;;;;22.76;41.70;100688.66;4992157;28;45351;-60
2022/06/03 09:13:19;;;;;;;;;10.00;10.00;;;;;22.92;41.39;100708.06;4977302;28;45446;-54
2022/06/03 09:15:45;;;;;;;;;9.60;9.60;;;;;22.87;41.63;100707.00;4959471;28;45365;-56
2022/06/03 09:18:29;;;;;;;;;12.00;10.00;;;;;22.87;41.76;100708.97;4978150;28;45575;-55
2022/06/03 09:21:04;;;;;;;;;13.00;12.60;;;;;23.00;41.97;100713.84;4986223;28;45390;-52
2022/06/03 09:23:33;;;;;;;;;12.20;10.80;;;;;23.00;41.67;100727.03;5029578;28;45489;-57
2022/06/03 09:26:00;;;;;;;;;11.20;10.40;;;;;23.04;41.51;100713.28;5012835;28;46102;-55
2022/06/03 09:28:34;;;;;;;;;14.00;13.00;;;;;23.05;41.52;100715.75;5020696;28;45959;-56
2022/06/03 09:31:00;;;;;;;;;10.20;10.00;;;;;23.13;41.45;100722.66;4976437;28;45402;-56
2022/06/03 09:33:26;;;;;;;;;10.00;10.00;;;;;23.18;41.80;100728.22;4976267;28;45467;-56
2022/06/03 09:35:52;;;;;;;;;10.00;10.00;;;;;22.99;41.77;100722.53;4975572;28;45400;-51
2022/06/03 09:38:19;;;;;;;;;14.80;12.00;;;;;23.13;41.91;100748.69;4992350;28;46724;-51
2022/06/03 09:40:45;;;;;;;;;11.60;10.20;;;;;23.02;42.38;100764.75;4986710;28;45344;-55
2022/06/03 09:43:19;;;;;;;;;9.20;9.20;;;;;23.20;41.74;100769.91;4992010;28;45772;-59
2022/06/03 09:45:46;;;;;;;;;9.00;7.60;;;;;23.29;41.89;100740.97;5027141;28;45366;-58
2022/06/03 09:48:33;;;;;;;;;14.60;13.20;;;;;23.36;42.01;100759.38;4975825;28;45450;-60
2022/06/03 09:51:19;;;;;;;;;12.60;11.60;;;;;23.25;41.44;100741.84;4976641;28;45397;-60
2022/06/03 09:53:45;;;;;;;;;13.00;12.00;;;;;23.38;42.08;100731.94;4960063;28;45525;-61
2022/06/03 09:56:18;;;;;;;;;10.60;8.60;;;;;23.49;42.41;100733.47;4968895;28;45525;-58
2022/06/03 09:58:43;;;;;;;;;10.60;10.00;;;;;23.58;42.79;100767.22;4954711;28;46363;-57
2022/06/03 10:01:09;;;;;;;;;10.50;9.75;;;;;23.65;42.67;100773.28;4976829;28;45373;-57
2022/06/03 10:03:34;;;;;;;;;12.50;12.00;;;;;23.59;43.08;100768.91;4959643;28;45418;-60
2022/06/03 10:06:00;;;;;;;;;7.75;7.75;;;;;23.53;43.29;100758.91;4964575;28;45640;-59
2022/06/03 10:12:48;;;;;;;;;12.00;12.00;;;;;23.54;43.31;100747.38;4976483;28;45579;-56
2022/06/03 10:13:56;;;;;;;;;14.20;11.20;;;;;23.41;43.15;100703.31;4976111;28;45660;-56
2022/06/03 10:16:22;;;;;;;;;12.25;12.00;;;;;23.59;43.10;100738.09;4970090;28;45443;-51
2022/06/03 10:18:49;;;;;;;;;11.00;9.80;;;;;23.60;43.35;100736.97;4969479;28;45784;-54
2022/06/03 10:21:14;;;;;;;;;13.20;12.40;;;;;23.65;43.00;100734.06;4983713;28;45550;-57
2022/06/03 10:23:52;;;;;;;;;11.50;10.75;;;;;23.73;43.91;100737.34;4995403;28;45961;-57
2022/06/03 10:26:39;;;;;;;;;11.60;10.60;;;;;23.78;43.57;100738.09;4996853;28;45417;-58
2022/06/03 10:29:18;;;;;;;;;13.60;10.60;;;;;23.87;43.41;100735.47;4996733;28;46713;-58
2022/06/03 10:31:48;;;;;;;;;14.20;11.20;;;;;23.91;43.98;100733.72;4996789;28;45256;-59
2022/06/03 10:34:17;;;;;;;;;15.40;12.60;;;;;23.80;44.04;100704.19;4996638;28;45504;-56
2022/06/03 10:36:46;;;;;;;;;13.00;13.00;;;;;24.12;43.90;100727.00;4996112;28;45426;-57
2022/06/03 10:39:16;;;;;;;;;16.20;13.80;;;;;24.15;44.00;100710.41;5028378;28;46103;-59
2022/06/03 10:41:43;;;;;;;;;11.40;11.40;;;;;24.27;44.35;100728.72;4997256;28;45353;-57
2022/06/03 10:44:21;;;;;;;;;12.00;11.00;;;;;24.33;44.20;100725.53;5028555;28;45408;-57
2022/06/03 10:47:04;;;;;;;;;9.00;8.00;;;;;24.40;44.43;100727.09;4996353;28;45403;-59
2022/06/03 10:49:31;;;;;;;;;11.60;11.00;;;;;24.51;44.04;100734.22;4997229;28;45761;-57
2022/06/03 11:02:57;;;;;;;;;12.00;12.00;;;;;24.71;44.42;100710.56;4996812;28;45297;-59
2022/06/03 11:05:23;;;;;;;;;10.25;9.25;;;;;24.67;44.55;100703.91;4996768;28;45273;-58
2022/06/03 11:08:05;;;;;;;;;12.40;12.40;;;;;24.82;44.42;100744.06;5029087;28;45334;-59
2022/06/03 11:10:54;;;;;;;;;11.80;10.40;;;;;24.67;44.74;100729.16;4996925;28;45763;-56
2022/06/03 11:13:32;;;;;;;;;9.80;9.40;;;;;24.49;44.66;100717.69;4995259;28;45447;-58
2022/06/03 11:16:21;;;;;;;;;14.20;13.60;;;;;24.53;45.58;100759.16;4995614;28;45768;-51
2022/06/03 11:18:46;;;;;;;;;11.20;11.20;;;;;24.35;45.73;100765.28;4996634;28;45532;-55
2022/06/03 11:21:27;;;;;;;;;13.50;11.75;;;;;24.22;46.14;100769.72;4987154;28;45775;-59
2022/06/03 11:23:55;;;;;;;;;14.20;14.00;;;;;24.14;46.10;100770.41;4975765;28;45710;-58
2022/06/03 11:26:24;;;;;;;;;12.40;11.60;;;;;24.07;46.59;100769.97;4975848;28;45437;-58
2022/06/03 11:28:53;;;;;;;;;11.40;11.40;;;;;23.90;46.78;100748.84;4976998;28;45425;-57
2022/06/03 11:31:41;;;;;;;;;11.40;9.60;;;;;23.67;46.86;100723.41;4959527;28;45819;-57
2022/06/03 11:34:08;;;;;;;;;10.60;10.60;;;;;23.87;47.39;100760.69;4961635;28;45406;-57
2022/06/03 11:36:39;;;;;;;;;12.60;11.20;;;;;23.81;47.48;100761.88;4975492;28;45475;-57
2022/06/03 11:39:14;;;;;;;;;2.80;0.80;;;;;23.62;47.47;100740.28;4975644;28;45501;-55
2022/06/03 11:41:44;;;;;;;;;12.60;10.40;;;;;23.74;47.83;100773.47;4975912;28;46538;-57
2022/06/03 11:44:19;;;;;;;;;10.60;10.60;;;;;23.55;47.96;100751.84;4974960;28;45460;-57
2022/06/03 11:46:54;;;;;;;;;9.00;7.60;;;;;23.58;48.09;100758.81;4958929;28;45300;-57
2022/06/03 11:49:20;;;;;;;;;9.00;8.00;;;;;23.62;48.26;100779.50;4976460;28;45378;-59
2022/06/03 11:51:46;;;;;;;;;12.75;10.00;;;;;23.62;48.34;100775.84;4974478;28;46546;-57
2022/06/03 11:54:13;;;;;;;;;10.50;10.50;;;;;23.64;48.61;100785.63;4958757;28;45905;-58
2022/06/03 11:56:38;;;;;;;;;10.80;10.00;;;;;23.57;48.94;100781.53;4958955;28;45363;-58
2022/06/03 11:59:22;;;;;;;;;8.25;8.00;;;;;23.39;49.05;100772.78;4976298;28;45294;-57
2022/06/03 12:01:51;;;;;;;;;12.40;8.80;;;;;23.39;50.69;100792.38;4975953;28;45655;-58
2022/06/03 12:04:38;;;;;;;;;8.80;8.80;;;;;23.30;51.04;100786.59;4975960;28;45466;-54
2022/06/03 12:07:25;;;;;;;;;7.40;7.40;;;;;23.19;51.16;100785.84;4976291;28;45275;-58
2022/06/03 12:10:10;;;;;;;;;9.00;8.20;;;;;22.99;51.07;100768.16;4979680;28;45319;-57
2022/06/03 12:15:52;;;;;;;;;4.00;3.20;;;;;22.98;52.81;100782.44;4967974;28;45340;-61
2022/06/03 12:18:34;;;;;;;;;7.40;7.40;;;;;22.92;53.12;100792.84;4982501;28;45478;-54
2022/06/03 12:21:13;;;;;;;;;8.60;8.60;;;;;22.78;54.05;100787.09;4989680;28;46092;-59
2022/06/03 12:23:39;;;;;;;;;12.00;8.40;;;;;22.78;54.99;100798.28;5000922;28;45354;-57
2022/06/03 12:26:08;;;;;;;;;10.50;10.50;;;;;22.75;55.72;100790.50;5001877;28;45285;-58
2022/06/03 12:28:37;;;;;;;;;7.60;7.60;;;;;22.78;55.87;100794.66;5002260;28;45445;-54
2022/06/03 12:31:17;;;;;;;;;10.20;10.20;;;;;22.73;56.61;100796.38;5001774;28;45596;-51
2022/06/03 12:33:55;;;;;;;;;10.80;8.00;;;;;22.70;57.04;100794.19;5001797;28;46237;-56
2022/06/03 12:36:24;;;;;;;;;10.00;8.80;;;;;22.70;56.99;100790.53;5002345;28;45365;-59
2022/06/03 12:39:05;;;;;;;;;7.20;7.00;;;;;22.68;57.51;100795.59;5001839;28;45504;-57
2022/06/03 12:41:53;;;;;;;;;9.80;9.20;;;;;22.64;57.57;100795.34;5002052;28;45511;-60
2022/06/03 12:44:44;;;;;;;;;8.40;8.40;;;;;22.60;58.36;100786.72;5000314;28;45301;-59
2022/06/03 12:47:31;;;;;;;;;13.20;7.80;;;;;22.55;58.23;100797.09;5016450;28;45380;-54
2022/06/03 12:50:21;;;;;;;;;9.80;8.60;;;;;22.52;58.91;100795.69;5001548;28;45421;-53